Accueil
METAR-TAF:

METAR-TAF

Aéroports :

Aéroport de Nîmes–Alès–Camargue–Cévennes, Garons

Nîmes, France

latitude: 43-45N, longitude: 004-25E, altitude: 94 m

Observation

Le bulletin a été fait il y a 7 minutes, à 03:00 UTC
Vent 6 kt de ouest/nord-ouest
Température 17°C
Humidité 63%
Pression 1014 hPa
Visibilité 10 km ou plus
pas de nuages en-dessous de 1500 mètres et pas de cumulonimbus.

METAR: LFTW 020300Z AUTO 29006KT CAVOK 17/10 Q1014

Heure: 05:07 (03:07 UTC)

Prévision

Le bulletin a été fait il y a 13 heures et 7 minutes, à 14:00 UTC
Prévision valable du 01 à 15 UTC au 02 à 15 UTC
Vent 10 kt de nord-ouest
Visibilité 10 km ou plus
pas de nuages en-dessous de 1500 mètres et pas de cumulonimbus.
Temporairement
du 01 à 16 UTC au 01 à 21 UTC
Vent 10 kt de nord/nord-est
Evoluant progressivement
du 02 à 12 UTC au 02 à 14 UTC
Vent 10 kt de sud-ouest

TAF: LFTW 011400Z 0115/0215 31010KT CAVOK TEMPO 0116/0121 02010KT BECMG 0212/0214 22010KT

Observations et prévisions météorologiques de plus de 4000 aéroports (messages METAR et TAF).

Les stations disponibles sont représentées par des disques jaunes et rouges sur la carte.

Passer la souris dessus pour voir le nom de la station.

Cliquer dessus pour voir les observations et prévisions météorologiques.

Pour changer de carte: cliquez sur les boutons verts avec une croix noire pour zoomer, sur le bouton vert avec un tiret pour effectuer un zoom arrière, ou sur les flèches vertes pour les cartes adjacentes.


METAR-TAF: